地図

経路データ

SID SEASON NUMBER BASIN SUBBASIN NAME ISO_TIME NATURE LAT LON WMO_WIND WMO_PRES WMO_AGENCY TRACK_TYPE DIST2LAND LANDFALL IFLAG USA_AGENCY USA_ATCF_ID USA_LAT USA_LON USA_RECORD USA_STATUS USA_WIND USA_PRES USA_SSHS USA_R34_NE USA_R34_SE USA_R34_SW USA_R34_NW USA_R50_NE USA_R50_SE USA_R50_SW USA_R50_NW USA_R64_NE USA_R64_SE USA_R64_SW USA_R64_NW USA_POCI USA_ROCI USA_RMW USA_EYE TOKYO_LAT TOKYO_LON TOKYO_GRADE TOKYO_WIND TOKYO_PRES TOKYO_R50_DIR TOKYO_R50_LONG TOKYO_R50_SHORT TOKYO_R30_DIR TOKYO_R30_LONG TOKYO_R30_SHORT TOKYO_LAND CMA_LAT CMA_LON CMA_CAT CMA_WIND CMA_PRES HKO_LAT HKO_LON HKO_CAT HKO_WIND HKO_PRES NEWDELHI_LAT NEWDELHI_LON NEWDELHI_GRADE NEWDELHI_WIND NEWDELHI_PRES NEWDELHI_CI NEWDELHI_DP NEWDELHI_POCI REUNION_LAT REUNION_LON REUNION_TYPE REUNION_WIND REUNION_PRES REUNION_TNUM REUNION_CI REUNION_RMW REUNION_R34_NE REUNION_R34_SE REUNION_R34_SW REUNION_R34_NW REUNION_R50_NE REUNION_R50_SE REUNION_R50_SW REUNION_R50_NW REUNION_R64_NE REUNION_R64_SE REUNION_R64_SW REUNION_R64_NW BOM_LAT BOM_LON BOM_TYPE BOM_WIND BOM_PRES BOM_TNUM BOM_CI BOM_RMW BOM_R34_NE BOM_R34_SE BOM_R34_SW BOM_R34_NW BOM_R50_NE BOM_R50_SE BOM_R50_SW BOM_R50_NW BOM_R64_NE BOM_R64_SE BOM_R64_SW BOM_R64_NW BOM_ROCI BOM_POCI BOM_EYE BOM_POS_METHOD BOM_PRES_METHOD NADI_LAT NADI_LON NADI_CAT NADI_WIND NADI_PRES WELLINGTON_LAT WELLINGTON_LON WELLINGTON_WIND WELLINGTON_PRES DS824_LAT DS824_LON DS824_STAGE DS824_WIND DS824_PRES TD9636_LAT TD9636_LON TD9636_STAGE TD9636_WIND TD9636_PRES TD9635_LAT TD9635_LON TD9635_WIND TD9635_PRES TD9635_ROCI NEUMANN_LAT NEUMANN_LON NEUMANN_CLASS NEUMANN_WIND NEUMANN_PRES MLC_LAT MLC_LON MLC_CLASS MLC_WIND MLC_PRES USA_GUST BOM_GUST BOM_GUST_PER REUNION_GUST REUNION_GUST_PER USA_SEAHGT USA_SEARAD_NE USA_SEARAD_SE USA_SEARAD_SW USA_SEARAD_NW STORM_SPEED STORM_DIR
2020037S17121 2020 9 SI WA DAMIEN 2020-02-06 00:00:00 NR -17.1000 120.900 PROVISIONAL 139 139 O_____________ tcvitals SI142020 -17.1000 120.900 35 998 0 80 80 105 75 1004 190 30 15 273
2020037S17121 2020 9 SI WA DAMIEN 2020-02-06 03:00:00 NR -17.0559 120.142 PROVISIONAL 219 219 P_____________ SI142020 -17.0559 120.142 37 996 0 90 82 97 87 1003 177 30 13 270
2020037S17121 2020 9 SI WA DAMIEN 2020-02-06 06:00:00 NR -17.1000 119.500 PROVISIONAL 281 281 O_____________ tcvitals SI142020 -17.1000 119.500 39 995 0 100 85 90 100 1003 165 30 11 258
2020037S17121 2020 9 SI WA DAMIEN 2020-02-06 09:00:00 NR -17.2844 119.035 PROVISIONAL 313 293 P_____________ SI142020 -17.2844 119.035 45 993 0 97 85 85 97 1003 160 30 9 245
2020037S17121 2020 9 SI WA DAMIEN 2020-02-06 12:00:00 NR -17.5000 118.600 PROVISIONAL 295 289 O_____________ tcvitals SI142020 -17.5000 118.600 51 992 0 95 85 80 95 1004 155 30 11 253
2020037S17121 2020 9 SI WA DAMIEN 2020-02-06 15:00:00 NR -17.6155 117.933 PROVISIONAL 306 304 P_____________ SI142020 -17.6155 117.933 52 991 0 75 85 80 77 1004 165 27 12 260
2020037S17121 2020 9 SI WA DAMIEN 2020-02-06 18:00:00 NR -17.7000 117.400 PROVISIONAL 310 302 O_____________ tcvitals SI142020 -17.7000 117.400 54 990 0 55 85 80 60 1004 175 25 6 252
2020037S17121 2020 9 SI WA DAMIEN 2020-02-06 21:00:00 NR -17.7997 117.340 PROVISIONAL 302 289 P_____________ SI142020 -17.7997 117.340 57 988 0 80 80 77 65 1004 172 27 2 172
2020037S17121 2020 9 SI WA DAMIEN 2020-02-07 00:00:00 NR -17.9000 117.400 PROVISIONAL 289 281 O_____________ tcvitals SI142020 -17.9000 117.400 60 986 0 105 75 75 70 1004 170 30 2 213
2020037S17121 2020 9 SI WA DAMIEN 2020-02-07 03:00:00 NR -17.9776 117.215 PROVISIONAL 284 277 P_____________ SI142020 -17.9776 117.215 62 983 0 80 85 77 67 1003 167 25 4 242
2020037S17121 2020 9 SI WA DAMIEN 2020-02-07 06:00:00 NR -18.1000 117.000 PROVISIONAL 280 257 O_____________ tcvitals SI142020 -18.1000 117.000 64 981 1 55 95 80 65 1003 165 20 5 222
2020037S17121 2020 9 SI WA DAMIEN 2020-02-07 09:00:00 NR -18.3275 116.885 PROVISIONAL 257 223 P_____________ SI142020 -18.3275 116.885 69 978 1 57 100 87 70 1004 175 12 5 201
2020037S17121 2020 9 SI WA DAMIEN 2020-02-07 12:00:00 NR -18.6000 116.800 PROVISIONAL 223 201 O_____________ tcvitals SI142020 -18.6000 116.800 74 976 1 60 105 95 75 1005 185 5 5 199
2020037S17121 2020 9 SI WA DAMIEN 2020-02-07 15:00:00 NR -18.8350 116.700 PROVISIONAL 201 168 P_____________ SI142020 -18.8350 116.700 79 972 1 65 102 97 72 1005 192 5 5 201
2020037S17121 2020 9 SI WA DAMIEN 2020-02-07 18:00:00 NR -19.1000 116.600 PROVISIONAL 168 135 O_____________ tcvitals SI142020 -19.1000 116.600 84 969 2 70 100 100 70 1005 200 5 6 200
2020037S17121 2020 9 SI WA DAMIEN 2020-02-07 21:00:00 NR -19.4425 116.470 PROVISIONAL 135 94 P_____________ SI142020 -19.4425 116.470 86 967 2 72 102 102 72 1005 200 9 7 195
2020037S17121 2020 9 SI WA DAMIEN 2020-02-08 00:00:00 NR -19.8000 116.400 PROVISIONAL 94 59 O_____________ tcvitals SI142020 -19.8000 116.400 89 966 2 75 105 105 75 1006 200 14 6 182
2020037S17121 2020 9 SI WA DAMIEN 2020-02-08 03:00:00 NR -20.0850 116.462 PROVISIONAL 59 24 P_____________ SI142020 -20.0850 116.462 91 963 2 87 112 100 82 1006 200 14 6 162
2020037S17121 2020 9 SI WA DAMIEN 2020-02-08 06:00:00 NR -20.4000 116.600 PROVISIONAL 24 0 O_____________ tcvitals SI142020 -20.4000 116.600 93 961 2 100 120 95 90 1006 200 14 8 161
2020037S17121 2020 9 SI WA DAMIEN 2020-02-08 09:00:00 NR -20.8350 116.735 PROVISIONAL 0 0 P_____________ SI142020 -20.8350 116.735 88 965 2 100 120 85 87 1006 200 14 9 163
2020037S17121 2020 9 SI WA DAMIEN 2020-02-08 12:00:00 NR -21.3000 116.900 PROVISIONAL 0 0 O_____________ tcvitals SI142020 -21.3000 116.900 84 969 2 100 120 75 85 1006 200 14 9 160
2020037S17121 2020 9 SI WA DAMIEN 2020-02-08 15:00:00 NR -21.6999 117.078 PROVISIONAL 0 0 P_____________ SI142020 -21.6999 117.078 74 976 1 97 110 72 85 1006 205 14 9 155
2020037S17121 2020 9 SI WA DAMIEN 2020-02-08 18:00:00 NR -22.1000 117.300 PROVISIONAL 0 0 O_____________ tcvitals SI142020 -22.1000 117.300 64 983 1 95 100 70 85 1006 210 14 10 149
2020037S17121 2020 9 SI WA DAMIEN 2020-02-08 21:00:00 NR -22.5802 117.652 PROVISIONAL 0 0 P_____________ SI142020 -22.5802 117.652 57 988 0 85 90 67 67 1006 210 14 11 148
2020037S17121 2020 9 SI WA DAMIEN 2020-02-09 00:00:00 NR -23.0000 117.900 PROVISIONAL 0 0 O_____________ tcvitals SI142020 -23.0000 117.900 51 993 0 75 80 65 50 1006 210 14 7 165
2020037S17121 2020 9 SI WA DAMIEN 2020-02-09 03:00:00 NR -23.2525 117.846 PROVISIONAL 0 0 P_____________ SI142020 -23.2525 117.846 45 992 0 82 80 67 62 1003 190 14 5 215
2020037S17121 2020 9 SI WA DAMIEN 2020-02-09 06:00:00 NR -23.4000 117.600 PROVISIONAL 0 O_____________ tcvitals SI142020 -23.4000 117.600 39 992 0 90 80 70 75 1001 170 14 5 237

IBTrACS Databaseについて

本データベースは、米国NOAAが公開する1842年以降の世界の熱帯低気圧のベストトラックデータアーカイブInternational Best Track Archive for Climate Stewardship (IBTrACS)を、ウェブで閲覧しやすい形式に変換したものです。

最終更新日:2021-10-08